createdAt,value
2019-04-06T00:00:49.666Z,21.63
2019-04-06T00:03:19.778Z,20.27
2019-04-06T00:05:49.170Z,20.23
2019-04-06T00:08:28.291Z,21.83
2019-04-06T00:11:02.666Z,19.40
2019-04-06T00:13:33.168Z,22.20
2019-04-06T00:16:03.216Z,19.00
2019-04-06T00:18:32.579Z,18.60
2019-04-06T00:21:03.421Z,21.43
2019-04-06T00:23:32.788Z,20.77
2019-04-06T00:26:03.625Z,20.47
2019-04-06T00:28:34.456Z,19.57
2019-04-06T00:31:25.687Z,19.30
2019-04-06T00:33:55.073Z,20.93
2019-04-06T00:36:24.905Z,21.07
2019-04-06T00:38:54.379Z,21.43
2019-04-06T00:41:24.071Z,20.67
2019-04-06T00:43:53.541Z,20.73
2019-04-06T00:46:22.964Z,19.80
2019-04-06T00:48:53.030Z,23.70
2019-04-06T00:51:22.395Z,20.27
2019-04-06T00:53:52.281Z,21.53
2019-04-06T00:56:26.011Z,22.03
2019-04-06T00:59:06.825Z,20.73
2019-04-06T01:01:41.228Z,21.50
2019-04-06T01:04:13.623Z,21.23
2019-04-06T01:06:47.384Z,20.90
2019-04-06T01:09:24.959Z,21.50
2019-04-06T01:11:59.634Z,20.50
2019-04-06T01:14:32.502Z,19.67
2019-04-06T01:17:08.093Z,21.40
2019-04-06T01:19:40.507Z,21.57
2019-04-06T01:22:13.594Z,21.97
2019-04-06T01:24:45.771Z,20.87
2019-04-06T01:27:18.502Z,21.17
2019-04-06T01:29:50.894Z,21.37
2019-04-06T01:32:28.187Z,20.97
2019-04-06T01:35:03.819Z,19.27
2019-04-06T01:37:38.650Z,18.97
2019-04-06T01:40:14.974Z,15.83
2019-04-06T01:42:50.721Z,18.60
2019-04-06T01:45:25.685Z,15.47
2019-04-06T01:48:00.096Z,15.83
2019-04-06T01:50:33.715Z,15.37
2019-04-06T01:53:08.595Z,14.20
2019-04-06T01:55:42.874Z,13.27
2019-04-06T01:58:14.062Z,11.20
2019-04-06T02:01:00.083Z,12.47
2019-04-06T02:03:31.466Z,13.43
2019-04-06T02:06:02.358Z,14.20
2019-04-06T02:08:36.203Z,14.50
2019-04-06T02:11:07.556Z,17.73
2019-04-06T02:13:41.008Z,13.77
2019-04-06T02:16:12.500Z,17.97
2019-04-06T02:18:46.502Z,14.63
2019-04-06T02:21:18.482Z,15.33
2019-04-06T02:23:53.251Z,16.17
2019-04-06T02:26:33.938Z,13.23
2019-04-06T02:29:06.497Z,13.60
2019-04-06T02:32:18.160Z,16.07
2019-04-06T02:35:00.035Z,21.07
2019-04-06T02:38:00.144Z,19.67
2019-04-06T02:40:51.657Z,20.93
2019-04-06T02:43:26.935Z,20.47
2019-04-06T02:46:11.836Z,20.53
2019-04-06T02:48:54.746Z,21.73
2019-04-06T02:51:36.095Z,22.10
2019-04-06T02:54:10.375Z,22.93
2019-04-06T02:56:47.836Z,22.17
2019-04-06T02:59:23.762Z,20.70
2019-04-06T03:01:58.526Z,21.33
2019-04-06T03:04:33.226Z,20.70
2019-04-06T03:07:08.196Z,19.20
2019-04-06T03:09:42.728Z,21.17
2019-04-06T03:12:22.621Z,20.23
2019-04-06T03:14:58.800Z,22.70
2019-04-06T03:17:33.770Z,22.33
2019-04-06T03:20:10.231Z,19.30
2019-04-06T03:22:45.967Z,19.33
2019-04-06T03:25:25.884Z,20.80
2019-04-06T03:28:04.658Z,22.70
2019-04-06T03:30:41.468Z,21.20
2019-04-06T03:33:19.017Z,21.10
2019-04-06T03:35:54.644Z,19.03
2019-04-06T03:38:35.379Z,22.00
2019-04-06T03:41:18.677Z,21.07
2019-04-06T03:43:54.993Z,20.73
2019-04-06T03:46:33.088Z,22.63
2019-04-06T03:49:20.435Z,21.50
2019-04-06T03:52:00.811Z,21.07
2019-04-06T03:54:35.374Z,20.50
2019-04-06T03:57:17.246Z,20.53
2019-04-06T03:59:56.423Z,22.33
2019-04-06T04:02:34.682Z,22.10
2019-04-06T04:05:09.837Z,20.53
2019-04-06T04:07:47.768Z,20.43
2019-04-06T04:10:41.853Z,23.37
2019-04-06T04:13:20.065Z,21.23
2019-04-06T04:16:04.724Z,23.30
2019-04-06T04:18:42.259Z,21.17
2019-04-06T04:21:23.854Z,22.37
2019-04-06T04:24:05.803Z,21.40
2019-04-06T04:27:09.383Z,21.80
2019-04-06T04:29:47.781Z,21.87
2019-04-06T04:32:37.517Z,20.40
2019-04-06T04:35:18.367Z,22.70
2019-04-06T04:38:04.733Z,19.20
2019-04-06T04:40:41.246Z,20.47
2019-04-06T04:43:22.301Z,20.80
2019-04-06T04:45:57.671Z,19.67
2019-04-06T04:48:35.047Z,19.00
2019-04-06T04:51:20.432Z,22.63
2019-04-06T04:53:56.378Z,20.40
2019-04-06T04:56:30.459Z,18.37
2019-04-06T04:59:13.655Z,19.33
2019-04-06T05:01:52.953Z,20.53
2019-04-06T05:04:29.709Z,19.90
2019-04-06T05:07:05.620Z,21.73
2019-04-06T05:09:40.397Z,22.80
2019-04-06T05:12:19.014Z,21.53
2019-04-06T05:15:14.607Z,25.30
2019-04-06T05:17:52.165Z,20.53
2019-04-06T05:20:28.192Z,23.60
2019-04-06T05:23:20.715Z,23.90
2019-04-06T05:25:58.846Z,21.90
2019-04-06T05:28:31.967Z,25.77
2019-04-06T05:31:05.840Z,21.43
2019-04-06T05:33:37.242Z,21.30
2019-04-06T05:36:09.604Z,19.93
2019-04-06T05:38:43.167Z,19.10
2019-04-06T05:41:15.066Z,19.10
2019-04-06T05:43:49.962Z,19.00
2019-04-06T05:49:22.392Z,16.63
2019-04-06T05:51:54.330Z,18.13
2019-04-06T05:54:27.914Z,16.97
2019-04-06T05:57:02.262Z,19.60
2019-04-06T05:59:39.929Z,19.83
2019-04-06T06:02:20.839Z,20.90
2019-04-06T06:05:14.288Z,21.73
2019-04-06T06:08:03.628Z,23.67
2019-04-06T06:10:44.352Z,22.20
2019-04-06T06:13:23.358Z,23.43
2019-04-06T06:16:00.003Z,23.60
2019-04-06T06:18:46.957Z,25.17
2019-04-06T06:21:24.126Z,23.50
2019-04-06T06:24:18.188Z,23.73
2019-04-06T06:27:01.230Z,22.93
2019-04-06T06:30:00.588Z,23.43
2019-04-06T06:32:45.761Z,23.83
2019-04-06T06:35:36.604Z,25.00
2019-04-06T06:38:07.402Z,25.43
2019-04-06T06:40:41.066Z,26.13
2019-04-06T06:43:21.461Z,24.17
2019-04-06T06:45:59.478Z,26.77
2019-04-06T06:48:43.152Z,25.53
2019-04-06T06:51:21.938Z,24.30
2019-04-06T06:54:21.781Z,27.73
2019-04-06T06:57:18.721Z,24.57
2019-04-06T06:59:53.431Z,24.77
2019-04-06T07:02:32.276Z,24.23
2019-04-06T07:05:05.737Z,24.20
2019-04-06T07:07:36.933Z,25.73
2019-04-06T07:10:44.673Z,23.20
2019-04-06T07:13:15.328Z,27.53
2019-04-06T07:15:44.772Z,23.97
2019-04-06T07:18:16.491Z,24.63
2019-04-06T07:20:47.012Z,25.30
2019-04-06T07:23:19.949Z,26.13
2019-04-06T07:25:57.659Z,22.77
2019-04-06T07:28:37.450Z,22.87
2019-04-06T07:31:03.433Z,23.83
2019-04-06T07:33:36.349Z,26.17
2019-04-06T07:36:31.809Z,24.13
2019-04-06T07:39:07.843Z,24.73
2019-04-06T07:42:16.648Z,25.97
2019-04-06T07:44:46.445Z,24.40
2019-04-06T07:47:35.321Z,26.00
2019-04-06T07:50:09.912Z,25.07
2019-04-06T07:52:42.126Z,23.00
2019-04-06T07:55:14.989Z,23.70
2019-04-06T07:57:50.853Z,22.67
2019-04-06T08:00:22.771Z,22.97
2019-04-06T08:03:11.495Z,21.23
2019-04-06T08:05:47.900Z,23.53
2019-04-06T08:08:20.892Z,23.43
2019-04-06T08:10:55.618Z,22.80
2019-04-06T08:13:26.509Z,20.97
2019-04-06T08:15:56.277Z,24.13
2019-04-06T08:18:34.056Z,24.50
2019-04-06T08:21:03.843Z,21.13
2019-04-06T08:23:44.531Z,23.07
2019-04-06T08:26:19.067Z,22.03
2019-04-06T08:29:00.335Z,24.30
2019-04-06T08:31:25.347Z,21.97
2019-04-06T08:34:00.759Z,21.20
2019-04-06T08:36:34.030Z,23.07
2019-04-06T08:39:07.242Z,24.10
2019-04-06T08:41:42.863Z,23.10
2019-04-06T08:44:24.810Z,21.97
2019-04-06T08:46:58.222Z,23.10
2019-04-06T08:49:32.627Z,21.97
2019-04-06T08:52:06.916Z,21.17
2019-04-06T08:54:41.952Z,22.10
2019-04-06T08:57:24.332Z,21.13
2019-04-06T08:59:56.371Z,22.37
2019-04-06T09:02:31.007Z,21.33
2019-04-06T09:05:46.052Z,21.97
2019-04-06T09:08:30.942Z,20.33
2019-04-06T09:11:05.963Z,22.50
2019-04-06T09:13:40.859Z,22.93
2019-04-06T09:16:14.974Z,23.17
2019-04-06T09:19:10.512Z,22.20
2019-04-06T09:21:46.912Z,23.00
2019-04-06T09:24:22.669Z,22.37
2019-04-06T09:26:58.794Z,22.90
2019-04-06T09:29:36.627Z,22.77
2019-04-06T09:32:15.918Z,23.57
2019-04-06T09:34:53.049Z,24.33
2019-04-06T09:37:27.956Z,23.93
2019-04-06T09:40:15.981Z,25.40
2019-04-06T09:42:49.863Z,24.07
2019-04-06T09:46:03.642Z,22.60
2019-04-06T09:49:09.738Z,26.03
2019-04-06T09:52:16.183Z,22.03
2019-04-06T09:55:15.744Z,24.57
2019-04-06T09:58:08.388Z,24.43
2019-04-06T10:01:01.070Z,23.93
2019-04-06T10:03:48.838Z,24.90
2019-04-06T10:06:43.257Z,24.50
2019-04-06T10:09:26.229Z,24.27
2019-04-06T10:12:16.270Z,25.07
2019-04-06T10:15:11.005Z,24.37
2019-04-06T10:18:00.795Z,24.43
2019-04-06T10:20:48.422Z,23.90
2019-04-06T10:23:43.315Z,25.73
2019-04-06T10:26:37.029Z,24.17
2019-04-06T10:29:19.389Z,23.57
2019-04-06T10:32:10.176Z,23.80
2019-04-06T10:35:01.348Z,25.57
2019-04-06T10:37:40.381Z,25.07
2019-04-06T10:40:28.898Z,23.67
2019-04-06T10:43:15.919Z,25.77
2019-04-06T10:46:08.519Z,24.00
2019-04-06T10:48:59.924Z,24.47
2019-04-06T10:51:57.253Z,24.33
2019-04-06T10:54:57.640Z,25.07
2019-04-06T10:57:49.481Z,25.63
2019-04-06T11:04:21.867Z,22.67
2019-04-06T11:08:00.597Z,24.70
2019-04-06T11:10:30.527Z,24.33
2019-04-06T11:20:53.353Z,24.73
2019-04-06T11:24:03.674Z,26.03
2019-04-06T11:27:01.437Z,23.03
2019-04-06T11:30:15.638Z,24.57
2019-04-06T11:47:40.606Z,25.37
2019-04-06T11:54:32.517Z,24.97
